CheckWX is a tool to help pilots better visualize weather data.  It is not intended as a substitute for an official pre-flight weather briefing.

22:38:05 UTC

KMZZ METAR
Marion Municipal Airport
Marion, Indiana, USA
Current

23 mins ago

KMZZ 262215Z AUTO 00000KT 10SM CLR 07/M12 A3039 RMK AO2 T00731123
Observed
Mar-26 @ 22:15 UTC
Visibility
10 SM
Flight Rules
VFR
Cloud Levels
  • Clear skies
Temperature
C / 45°F
Dewpoint
-12°C / 10°F
Humidity
25%
Altimeter
30.39" Hg
Pressure
1029.11 hPa
Previous

43 mins ago

KMZZ 262155Z AUTO 00000KT 10SM CLR 07/M12 A3039 RMK AO2 T00741123
Observed
Mar-26 @ 21:55 UTC
Visibility
10 SM
Flight Rules
VFR
Cloud Levels
  • Clear skies
Temperature
C / 45°F
Dewpoint
-12°C / 10°F
Humidity
25%
Altimeter
30.39" Hg
Pressure
1029.11 hPa
Previous

1 hour ago

KMZZ 262135Z AUTO 06003KT 10SM CLR 08/M12 A3039 RMK AO2 T00751117
Observed
Mar-26 @ 21:35 UTC
Wind
  • 060° at 3 KTS
Visibility
10 SM
Flight Rules
VFR
Cloud Levels
  • Clear skies
Temperature
C / 46°F
Dewpoint
-12°C / 10°F
Humidity
23%
Altimeter
30.39" Hg
Pressure
1029.11 hPa